createdAt,value
2017-12-26T00:00:13.069Z,53.10
2017-12-26T00:02:41.458Z,53.20
2017-12-26T00:05:09.833Z,53.20
2017-12-26T00:07:38.230Z,53.40
2017-12-26T00:10:05.811Z,53.30
2017-12-26T00:12:33.388Z,53.20
2017-12-26T00:15:01.003Z,53.30
2017-12-26T00:17:29.338Z,53.10
2017-12-26T00:19:56.923Z,53.10
2017-12-26T00:22:24.516Z,53.10
2017-12-26T00:24:52.076Z,53.40
2017-12-26T00:27:19.681Z,53.10
2017-12-26T00:29:47.255Z,53.10
2017-12-26T00:32:14.825Z,53.10
2017-12-26T00:34:42.400Z,53.10
2017-12-26T00:37:10.730Z,53.20
2017-12-26T00:39:38.348Z,53.20
2017-12-26T00:42:06.677Z,53.30
2017-12-26T00:44:34.267Z,53.20
2017-12-26T00:47:01.863Z,53.30
2017-12-26T00:49:29.447Z,54.00
2017-12-26T00:51:57.040Z,53.10
2017-12-26T00:54:24.605Z,53.10
2017-12-26T00:56:52.186Z,53.20
2017-12-26T00:59:20.532Z,53.40
2017-12-26T01:01:48.118Z,53.40
2017-12-26T01:04:16.505Z,53.40
2017-12-26T01:06:44.851Z,53.40
2017-12-26T01:09:12.436Z,53.40
2017-12-26T01:11:40.788Z,53.30
2017-12-26T01:14:08.366Z,53.30
2017-12-26T01:16:36.003Z,53.40
2017-12-26T01:19:03.583Z,53.20
2017-12-26T01:21:31.166Z,53.20
2017-12-26T01:23:59.497Z,53.30
2017-12-26T01:26:27.071Z,53.20
2017-12-26T01:28:54.692Z,53.40
2017-12-26T01:31:22.265Z,53.30
2017-12-26T01:33:49.855Z,53.40
2017-12-26T01:36:17.434Z,53.40
2017-12-26T01:38:45.790Z,53.40
2017-12-26T01:41:13.394Z,53.30
2017-12-26T01:43:41.735Z,53.30
2017-12-26T01:46:21.160Z,53.20
2017-12-26T01:48:48.742Z,53.30
2017-12-26T01:51:16.335Z,53.20
2017-12-26T01:53:43.940Z,53.20
2017-12-26T01:56:11.508Z,53.30
2017-12-26T01:58:39.119Z,53.30
2017-12-26T02:01:06.710Z,53.30
2017-12-26T02:03:34.275Z,53.30
2017-12-26T02:06:01.864Z,53.40
2017-12-26T02:08:29.456Z,53.40
2017-12-26T02:10:57.835Z,53.40
2017-12-26T02:13:26.178Z,53.40
2017-12-26T02:15:53.744Z,53.30
2017-12-26T02:18:21.330Z,53.30
2017-12-26T02:20:49.664Z,53.10
2017-12-26T02:23:17.274Z,53.00
2017-12-26T02:25:45.619Z,53.30
2017-12-26T02:28:13.203Z,53.30
2017-12-26T02:30:41.546Z,53.20
2017-12-26T02:33:09.121Z,53.20
2017-12-26T02:35:36.731Z,53.20
2017-12-26T02:38:04.294Z,53.30
2017-12-26T02:40:31.875Z,53.30
2017-12-26T02:42:59.469Z,53.20
2017-12-26T02:45:27.044Z,53.20
2017-12-26T02:47:55.458Z,53.20
2017-12-26T02:50:23.038Z,53.20
2017-12-26T02:52:50.633Z,53.00
2017-12-26T02:55:18.196Z,53.00
2017-12-26T02:57:46.554Z,52.90
2017-12-26T03:00:14.130Z,52.90
2017-12-26T03:02:41.750Z,52.90
2017-12-26T03:05:09.388Z,53.50
2017-12-26T03:07:36.968Z,52.90
2017-12-26T03:10:04.547Z,52.90
2017-12-26T03:12:32.132Z,53.00
2017-12-26T03:14:59.722Z,53.00
2017-12-26T03:17:27.296Z,53.10
2017-12-26T03:19:54.884Z,53.10
2017-12-26T03:22:22.489Z,53.00
2017-12-26T03:24:50.822Z,53.00
2017-12-26T03:27:18.402Z,52.90
2017-12-26T03:29:45.977Z,53.00
2017-12-26T03:32:13.545Z,52.90
2017-12-26T03:34:41.892Z,53.20
2017-12-26T03:37:10.928Z,53.00
2017-12-26T03:39:39.310Z,52.90
2017-12-26T03:42:07.686Z,53.00
2017-12-26T03:44:36.062Z,52.90
2017-12-26T03:47:04.406Z,53.00
2017-12-26T03:49:31.989Z,52.90
2017-12-26T03:51:59.569Z,53.10
2017-12-26T03:54:27.924Z,52.90
2017-12-26T03:56:55.543Z,52.90
2017-12-26T03:59:23.138Z,52.80
2017-12-26T04:01:50.712Z,53.30
2017-12-26T04:04:18.286Z,52.80
2017-12-26T04:06:46.639Z,52.90
2017-12-26T04:09:14.228Z,52.80
2017-12-26T04:11:42.578Z,52.80
2017-12-26T04:14:10.177Z,52.80
2017-12-26T04:16:37.740Z,52.80
2017-12-26T04:19:05.352Z,52.80
2017-12-26T04:21:32.940Z,52.80
2017-12-26T04:24:01.300Z,52.80
2017-12-26T04:26:28.886Z,52.70
2017-12-26T04:28:57.262Z,52.60
2017-12-26T04:31:25.642Z,52.60
2017-12-26T04:33:53.985Z,52.70
2017-12-26T04:36:21.576Z,52.60
2017-12-26T04:38:49.927Z,52.80
2017-12-26T04:41:17.497Z,52.80
2017-12-26T04:43:45.092Z,52.70
2017-12-26T04:46:12.670Z,52.70
2017-12-26T04:48:40.287Z,52.80
2017-12-26T04:51:07.870Z,52.80
2017-12-26T04:53:36.219Z,52.70
2017-12-26T04:56:03.802Z,52.70
2017-12-26T04:58:32.148Z,52.70
2017-12-26T05:00:59.721Z,53.10
2017-12-26T05:03:27.293Z,52.70
2017-12-26T05:05:54.901Z,52.70
2017-12-26T05:08:22.459Z,52.80
2017-12-26T05:10:50.029Z,52.70
2017-12-26T05:13:17.599Z,52.60
2017-12-26T05:15:45.173Z,52.60
2017-12-26T05:18:12.745Z,53.10
2017-12-26T05:20:40.327Z,52.70
2017-12-26T05:23:08.688Z,52.70
2017-12-26T05:25:36.264Z,52.70
2017-12-26T05:28:04.843Z,52.60
2017-12-26T05:30:33.180Z,52.60
2017-12-26T05:33:00.759Z,52.60
2017-12-26T05:35:28.351Z,52.60
2017-12-26T05:37:56.702Z,52.60
2017-12-26T05:40:24.343Z,52.50
2017-12-26T05:42:51.916Z,52.50
2017-12-26T05:45:19.520Z,52.50
2017-12-26T05:47:47.872Z,52.60
2017-12-26T05:50:15.445Z,52.60
2017-12-26T05:52:43.802Z,52.60
2017-12-26T05:55:11.390Z,52.60
2017-12-26T05:57:39.766Z,52.50
2017-12-26T06:00:08.105Z,52.60
2017-12-26T06:02:35.691Z,52.50
2017-12-26T06:05:04.075Z,52.40
2017-12-26T06:07:31.650Z,52.40
2017-12-26T06:10:00.008Z,52.40
2017-12-26T06:12:27.595Z,52.30
2017-12-26T06:14:55.965Z,52.30
2017-12-26T06:17:24.312Z,52.30
2017-12-26T06:19:51.902Z,52.30
2017-12-26T06:22:20.248Z,52.50
2017-12-26T06:24:47.816Z,52.40
2017-12-26T06:27:16.191Z,52.50
2017-12-26T06:29:43.761Z,52.40
2017-12-26T06:32:11.365Z,52.40
2017-12-26T06:34:38.961Z,52.40
2017-12-26T06:37:06.575Z,52.40
2017-12-26T06:39:34.156Z,52.30
2017-12-26T06:42:01.750Z,52.30
2017-12-26T06:44:29.334Z,52.30
2017-12-26T06:46:56.918Z,52.20
2017-12-26T06:49:25.295Z,52.40
2017-12-26T06:51:53.633Z,52.30
2017-12-26T06:54:21.200Z,52.30
2017-12-26T06:56:48.773Z,52.40
2017-12-26T06:59:16.373Z,52.30
2017-12-26T07:01:43.956Z,52.50
2017-12-26T07:04:11.542Z,52.20
2017-12-26T07:06:39.151Z,52.30
2017-12-26T07:09:06.738Z,52.20
2017-12-26T07:11:34.323Z,52.20
2017-12-26T07:14:01.910Z,52.10
2017-12-26T07:16:30.253Z,52.10
2017-12-26T07:18:57.843Z,52.10
2017-12-26T07:21:31.852Z,52.20
2017-12-26T07:24:00.210Z,52.10
2017-12-26T07:26:27.789Z,52.00
2017-12-26T07:28:55.403Z,51.90
2017-12-26T07:31:22.990Z,51.90
2017-12-26T07:33:50.578Z,51.80
2017-12-26T07:36:18.926Z,51.80
2017-12-26T07:38:46.511Z,51.70
2017-12-26T07:41:14.095Z,51.80
2017-12-26T07:43:41.735Z,51.80
2017-12-26T07:46:09.331Z,51.80
2017-12-26T07:48:36.896Z,51.70
2017-12-26T07:51:04.487Z,51.80
2017-12-26T07:53:32.073Z,51.70
2017-12-26T07:55:59.645Z,51.60
2017-12-26T07:58:27.994Z,51.40
2017-12-26T08:00:55.569Z,51.40
2017-12-26T08:03:23.200Z,51.30
2017-12-26T08:05:50.782Z,51.20
2017-12-26T08:08:18.362Z,51.00
2017-12-26T08:10:46.714Z,50.90
2017-12-26T08:13:14.289Z,50.80
2017-12-26T08:15:41.860Z,50.60
2017-12-26T08:18:09.461Z,50.60
2017-12-26T08:20:37.081Z,50.50
2017-12-26T08:23:04.663Z,50.80
2017-12-26T08:25:33.027Z,50.20
2017-12-26T08:28:01.364Z,50.00
2017-12-26T08:30:28.946Z,49.90
2017-12-26T08:32:56.537Z,49.80
2017-12-26T08:35:24.900Z,49.60
2017-12-26T08:37:53.298Z,49.60
2017-12-26T08:40:20.899Z,49.60
2017-12-26T08:42:48.461Z,49.40
2017-12-26T08:45:16.049Z,49.20
2017-12-26T08:47:43.651Z,48.90
2017-12-26T08:50:11.260Z,48.70
2017-12-26T08:52:38.838Z,48.60
2017-12-26T08:55:06.450Z,48.50
2017-12-26T08:57:34.041Z,48.30
2017-12-26T09:00:01.620Z,48.10
2017-12-26T09:02:29.209Z,47.80
2017-12-26T09:04:56.802Z,47.60
2017-12-26T09:07:24.365Z,47.50
2017-12-26T09:09:51.956Z,47.30
2017-12-26T09:12:19.578Z,47.00
2017-12-26T09:14:47.167Z,46.90
2017-12-26T09:17:14.748Z,46.60
2017-12-26T09:19:42.346Z,46.40
2017-12-26T09:22:09.916Z,46.50
2017-12-26T09:24:37.505Z,45.90
2017-12-26T09:27:05.077Z,45.60
2017-12-26T09:29:32.681Z,45.40
2017-12-26T09:32:00.281Z,45.20
2017-12-26T09:34:27.856Z,45.40
2017-12-26T09:36:55.420Z,45.10
2017-12-26T09:39:23.006Z,44.80
2017-12-26T09:41:51.355Z,44.60
2017-12-26T09:44:18.922Z,44.50
2017-12-26T09:46:46.534Z,44.30
2017-12-26T09:49:14.141Z,44.40
2017-12-26T09:51:41.729Z,44.20
2017-12-26T09:54:10.079Z,43.80
2017-12-26T09:56:37.657Z,43.80
2017-12-26T09:59:05.236Z,43.60
2017-12-26T10:01:32.862Z,43.60
2017-12-26T10:04:00.453Z,43.40
2017-12-26T10:06:28.800Z,43.10
2017-12-26T10:08:56.379Z,43.00
2017-12-26T10:11:23.942Z,43.00
2017-12-26T10:13:51.517Z,42.80
2017-12-26T10:16:19.875Z,42.70
2017-12-26T10:18:47.465Z,42.70
2017-12-26T10:21:15.846Z,43.30
2017-12-26T10:23:43.415Z,43.20
2017-12-26T10:26:11.002Z,43.40
2017-12-26T10:28:38.579Z,43.60
2017-12-26T10:31:06.145Z,43.70
2017-12-26T10:33:33.720Z,43.90
2017-12-26T10:36:01.312Z,43.90
2017-12-26T10:38:28.924Z,44.40
2017-12-26T10:40:56.509Z,43.90
2017-12-26T10:43:24.845Z,43.60
2017-12-26T10:45:52.440Z,43.50
2017-12-26T10:48:20.028Z,43.30
2017-12-26T10:50:48.371Z,43.20
2017-12-26T10:53:15.955Z,43.20
2017-12-26T10:55:44.317Z,43.30
2017-12-26T10:58:11.889Z,43.30
2017-12-26T11:00:40.226Z,43.60
2017-12-26T11:03:07.806Z,43.60
2017-12-26T11:05:35.391Z,43.90
2017-12-26T11:08:03.734Z,43.90
2017-12-26T11:10:31.308Z,43.90
2017-12-26T11:12:58.923Z,44.20
2017-12-26T11:15:26.548Z,44.30
2017-12-26T11:17:54.906Z,44.50
2017-12-26T11:20:22.516Z,44.40
2017-12-26T11:22:50.103Z,44.30
2017-12-26T11:25:17.688Z,44.50
2017-12-26T11:27:45.270Z,44.60
2017-12-26T11:30:13.647Z,44.60
2017-12-26T11:32:41.998Z,45.20
2017-12-26T11:35:09.592Z,44.70
2017-12-26T11:37:37.925Z,44.80
2017-12-26T11:40:05.515Z,44.80
2017-12-26T11:42:33.093Z,44.90
2017-12-26T11:45:01.434Z,45.10
2017-12-26T11:47:29.033Z,45.10
2017-12-26T11:49:57.371Z,45.30
2017-12-26T11:52:24.957Z,45.20
2017-12-26T11:54:52.525Z,45.30
2017-12-26T11:57:20.884Z,45.30
2017-12-26T12:02:41.328Z,45.30
2017-12-26T12:05:09.701Z,45.40
2017-12-26T12:07:38.050Z,45.40
2017-12-26T12:10:05.625Z,45.40
2017-12-26T12:12:33.204Z,45.40
2017-12-26T12:15:01.549Z,45.40
2017-12-26T12:17:29.118Z,45.40
2017-12-26T12:19:58.715Z,45.50
2017-12-26T12:22:26.313Z,45.50
2017-12-26T12:24:54.763Z,45.50
2017-12-26T12:27:22.360Z,45.60
2017-12-26T12:29:50.706Z,45.50
2017-12-26T12:32:18.277Z,45.40
2017-12-26T12:34:45.848Z,45.40
2017-12-26T12:37:14.188Z,45.80
2017-12-26T12:39:41.802Z,45.50
2017-12-26T12:42:10.152Z,45.60
2017-12-26T12:44:37.739Z,45.60
2017-12-26T12:47:06.101Z,45.90
2017-12-26T12:49:34.463Z,45.90
2017-12-26T12:52:02.067Z,45.80
2017-12-26T12:54:29.652Z,45.90
2017-12-26T12:56:57.252Z,46.00
2017-12-26T12:59:24.839Z,46.20
2017-12-26T13:01:53.180Z,46.30
2017-12-26T13:04:20.763Z,46.30
2017-12-26T13:06:49.114Z,46.80
2017-12-26T13:09:16.703Z,46.50
2017-12-26T13:11:45.063Z,47.20
2017-12-26T13:14:12.669Z,46.60
2017-12-26T13:16:40.240Z,46.70
2017-12-26T13:19:07.814Z,46.80
2017-12-26T13:21:35.397Z,47.00
2017-12-26T13:24:03.000Z,47.00
2017-12-26T13:26:31.337Z,47.10
2017-12-26T13:28:58.922Z,47.00
2017-12-26T13:31:27.303Z,47.70
2017-12-26T13:33:55.652Z,47.20
2017-12-26T13:36:23.226Z,47.10
2017-12-26T13:38:50.813Z,47.20
2017-12-26T13:41:19.158Z,47.30
2017-12-26T13:43:46.758Z,47.30
2017-12-26T13:46:15.107Z,47.30
2017-12-26T13:48:42.724Z,47.30
2017-12-26T13:51:10.290Z,47.30
2017-12-26T13:53:37.874Z,47.20
2017-12-26T13:56:05.444Z,47.30
2017-12-26T13:58:33.028Z,47.30
2017-12-26T14:01:01.362Z,47.30
2017-12-26T14:03:28.954Z,47.30
2017-12-26T14:05:56.554Z,47.40
2017-12-26T14:08:24.146Z,47.40
2017-12-26T14:10:52.484Z,47.60
2017-12-26T14:13:20.835Z,47.60
2017-12-26T14:15:48.404Z,47.50
2017-12-26T14:18:16.760Z,47.80
2017-12-26T14:20:44.340Z,47.80
2017-12-26T14:23:12.721Z,48.60
2017-12-26T14:25:41.057Z,48.00
2017-12-26T14:28:08.655Z,48.00
2017-12-26T14:30:36.242Z,48.00
2017-12-26T14:33:03.859Z,48.20
2017-12-26T14:35:31.446Z,48.20
2017-12-26T14:37:59.801Z,48.30
2017-12-26T14:40:27.400Z,48.30
2017-12-26T14:42:55.747Z,48.50
2017-12-26T14:45:23.316Z,48.50
2017-12-26T14:47:50.902Z,48.60
2017-12-26T14:50:18.502Z,48.60
2017-12-26T14:52:46.081Z,48.70
2017-12-26T14:55:14.442Z,48.80
2017-12-26T14:57:42.036Z,48.80
2017-12-26T15:00:09.628Z,48.90
2017-12-26T15:02:37.212Z,49.30
2017-12-26T15:05:04.785Z,48.90
2017-12-26T15:07:32.364Z,49.10
2017-12-26T15:09:59.941Z,49.10
2017-12-26T15:12:28.310Z,49.50
2017-12-26T15:14:55.905Z,49.20
2017-12-26T15:17:23.507Z,49.40
2017-12-26T15:19:51.110Z,49.50
2017-12-26T15:22:20.510Z,49.50
2017-12-26T15:24:48.866Z,49.60
2017-12-26T15:27:16.438Z,49.60
2017-12-26T15:29:44.808Z,49.70
2017-12-26T15:32:12.419Z,49.70
2017-12-26T15:34:40.032Z,49.70
2017-12-26T15:37:07.604Z,49.80
2017-12-26T15:39:35.192Z,49.80
2017-12-26T15:42:02.771Z,49.90
2017-12-26T15:44:30.368Z,49.90
2017-12-26T15:46:57.941Z,50.00
2017-12-26T15:49:25.558Z,50.10
2017-12-26T15:51:53.142Z,50.10
2017-12-26T15:54:20.712Z,50.10
2017-12-26T15:56:48.280Z,50.10
2017-12-26T15:59:15.866Z,50.10
2017-12-26T16:01:44.210Z,50.30
2017-12-26T16:04:11.793Z,50.30
2017-12-26T16:06:40.161Z,50.50
2017-12-26T16:09:07.737Z,50.30
2017-12-26T16:11:36.090Z,50.40
2017-12-26T16:14:03.679Z,50.40
2017-12-26T16:16:32.016Z,50.50
2017-12-26T16:18:59.592Z,50.40
2017-12-26T16:21:27.178Z,50.50
2017-12-26T16:23:55.541Z,50.50
2017-12-26T16:26:23.125Z,50.50
2017-12-26T16:28:51.456Z,51.20
2017-12-26T16:31:19.051Z,50.60
2017-12-26T16:33:47.403Z,50.80
2017-12-26T16:36:14.997Z,50.80
2017-12-26T16:38:43.337Z,51.00
2017-12-26T16:41:10.962Z,51.00
2017-12-26T16:43:38.560Z,51.00
2017-12-26T16:46:06.130Z,51.00
2017-12-26T16:48:33.729Z,51.00
2017-12-26T16:51:02.082Z,50.80
2017-12-26T16:53:29.655Z,50.70
2017-12-26T16:55:57.988Z,50.80
2017-12-26T16:58:25.603Z,50.80
2017-12-26T17:00:53.954Z,50.90
2017-12-26T17:03:21.536Z,50.80
2017-12-26T17:05:49.872Z,50.80
2017-12-26T17:08:17.447Z,50.80
2017-12-26T17:10:45.042Z,51.00
2017-12-26T17:13:13.382Z,51.10
2017-12-26T17:15:40.994Z,51.00
2017-12-26T17:18:08.589Z,51.10
2017-12-26T17:20:36.157Z,51.00
2017-12-26T17:23:03.724Z,50.80
2017-12-26T17:25:31.294Z,50.70
2017-12-26T17:27:58.888Z,50.70
2017-12-26T17:30:27.222Z,50.70
2017-12-26T17:32:54.843Z,50.70
2017-12-26T17:35:22.425Z,50.80
2017-12-26T17:37:49.992Z,51.10
2017-12-26T17:40:17.572Z,51.10
2017-12-26T17:42:45.156Z,51.20
2017-12-26T17:45:13.503Z,51.20
2017-12-26T17:47:41.084Z,51.20
2017-12-26T17:50:08.690Z,51.20
2017-12-26T17:52:36.276Z,51.20
2017-12-26T17:55:03.850Z,51.00
2017-12-26T17:57:31.417Z,50.90
2017-12-26T17:59:59.010Z,50.90
2017-12-26T18:02:27.349Z,50.90
2017-12-26T18:04:54.921Z,50.80
2017-12-26T18:07:22.535Z,51.10
2017-12-26T18:09:50.126Z,51.10
2017-12-26T18:12:17.706Z,51.20
2017-12-26T18:14:45.302Z,51.20
2017-12-26T18:17:12.872Z,51.40
2017-12-26T18:19:40.465Z,51.10
2017-12-26T18:22:11.206Z,51.20
2017-12-26T18:24:38.811Z,51.20
2017-12-26T18:27:07.155Z,51.10
2017-12-26T18:29:34.741Z,51.10
2017-12-26T18:32:03.063Z,51.10
2017-12-26T18:34:30.628Z,51.00
2017-12-26T18:36:58.213Z,51.00
2017-12-26T18:39:25.779Z,51.10
2017-12-26T18:41:53.381Z,51.10
2017-12-26T18:44:20.965Z,51.20
2017-12-26T18:46:48.532Z,51.20
2017-12-26T18:49:16.101Z,51.10
2017-12-26T18:51:43.694Z,51.20
2017-12-26T18:54:12.051Z,51.20
2017-12-26T18:56:39.642Z,51.10
2017-12-26T18:59:08.025Z,51.10
2017-12-26T19:01:36.365Z,51.10
2017-12-26T19:04:03.943Z,51.00
2017-12-26T19:06:31.517Z,51.00
2017-12-26T19:08:59.894Z,51.20
2017-12-26T19:11:28.232Z,51.40
2017-12-26T19:13:55.808Z,51.30
2017-12-26T19:16:23.422Z,51.40
2017-12-26T19:18:51.003Z,51.40
2017-12-26T19:21:18.567Z,51.30
2017-12-26T19:23:46.154Z,51.90
2017-12-26T19:26:13.728Z,51.30
2017-12-26T19:28:41.314Z,51.40
2017-12-26T19:31:08.875Z,51.20
2017-12-26T19:33:36.491Z,51.10
2017-12-26T19:36:04.052Z,51.30
2017-12-26T19:38:31.615Z,51.10
2017-12-26T19:40:59.186Z,51.10
2017-12-26T19:43:26.760Z,51.20
2017-12-26T19:45:55.096Z,51.10
2017-12-26T19:48:22.683Z,51.10
2017-12-26T19:50:50.282Z,51.20
2017-12-26T19:53:17.867Z,51.40
2017-12-26T19:55:45.453Z,51.40
2017-12-26T19:58:13.811Z,51.20
2017-12-26T20:00:41.402Z,50.80
2017-12-26T20:03:09.000Z,51.20
2017-12-26T20:05:36.581Z,51.20
2017-12-26T20:08:04.186Z,51.20
2017-12-26T20:10:31.772Z,51.20
2017-12-26T20:13:00.118Z,51.20
2017-12-26T20:15:27.707Z,51.10
2017-12-26T20:17:56.062Z,51.30
2017-12-26T20:20:23.657Z,51.20
2017-12-26T20:22:51.243Z,51.40
2017-12-26T20:25:18.861Z,51.40
2017-12-26T20:27:47.213Z,51.40
2017-12-26T20:30:14.785Z,51.40
2017-12-26T20:32:42.362Z,51.40
2017-12-26T20:35:10.705Z,51.40
2017-12-26T20:37:38.274Z,51.40
2017-12-26T20:40:05.844Z,51.40
2017-12-26T20:42:33.440Z,51.30
2017-12-26T20:45:01.028Z,51.20
2017-12-26T20:47:28.596Z,51.10
2017-12-26T20:49:56.172Z,51.20
2017-12-26T20:52:23.770Z,51.20
2017-12-26T20:54:52.096Z,51.30
2017-12-26T20:57:19.690Z,51.30
2017-12-26T20:59:47.304Z,51.30
2017-12-26T21:02:15.633Z,51.40
2017-12-26T21:04:43.215Z,51.40
2017-12-26T21:07:11.557Z,51.40
2017-12-26T21:09:39.132Z,51.40
2017-12-26T21:12:06.731Z,51.50
2017-12-26T21:14:34.313Z,51.60
2017-12-26T21:17:01.900Z,51.50
2017-12-26T21:19:29.463Z,51.50
2017-12-26T21:21:57.020Z,51.40
2017-12-26T21:24:24.595Z,51.40
2017-12-26T21:26:52.950Z,51.90
2017-12-26T21:29:20.527Z,51.40
2017-12-26T21:31:48.126Z,51.40
2017-12-26T21:34:15.748Z,51.40
2017-12-26T21:36:43.320Z,51.60
2017-12-26T21:39:11.680Z,51.60
2017-12-26T21:41:39.249Z,51.50
2017-12-26T21:44:06.832Z,51.60
2017-12-26T21:46:35.175Z,51.70
2017-12-26T21:49:02.774Z,51.60
2017-12-26T21:51:31.139Z,51.80
2017-12-26T21:53:58.750Z,51.60
2017-12-26T21:56:26.330Z,51.60
2017-12-26T21:58:53.896Z,51.60
2017-12-26T22:01:21.483Z,51.50
2017-12-26T22:03:49.817Z,51.60
2017-12-26T22:06:17.399Z,51.50
2017-12-26T22:08:44.988Z,51.60
2017-12-26T22:11:13.334Z,51.70
2017-12-26T22:13:40.918Z,51.60
2017-12-26T22:16:09.267Z,51.60
2017-12-26T22:18:36.847Z,52.10
2017-12-26T22:21:04.427Z,51.70
2017-12-26T22:23:32.791Z,51.80
2017-12-26T22:26:00.397Z,51.70
2017-12-26T22:28:27.994Z,51.60
2017-12-26T22:30:55.565Z,51.70
2017-12-26T22:33:23.132Z,51.70
2017-12-26T22:35:50.714Z,51.60
2017-12-26T22:38:19.067Z,51.50
2017-12-26T22:40:46.638Z,51.50
2017-12-26T22:43:15.005Z,52.30
2017-12-26T22:45:42.568Z,51.70
2017-12-26T22:48:10.137Z,51.80
2017-12-26T22:50:37.717Z,51.70
2017-12-26T22:53:06.079Z,51.80
2017-12-26T22:55:34.413Z,51.60
2017-12-26T22:58:01.981Z,51.60
2017-12-26T23:00:29.582Z,51.60
2017-12-26T23:02:57.925Z,51.70
2017-12-26T23:05:25.485Z,51.60
2017-12-26T23:07:53.055Z,51.60
2017-12-26T23:10:20.633Z,51.70
2017-12-26T23:12:48.211Z,51.80
2017-12-26T23:15:22.279Z,51.80
2017-12-26T23:17:55.388Z,51.80
2017-12-26T23:20:28.679Z,51.70
2017-12-26T23:23:02.106Z,51.60
2017-12-26T23:25:36.050Z,51.60
2017-12-26T23:28:09.398Z,52.10
2017-12-26T23:33:49.109Z,51.50
2017-12-26T23:36:22.425Z,51.60
2017-12-26T23:38:55.728Z,51.50
2017-12-26T23:41:28.894Z,51.50
2017-12-26T23:44:02.065Z,52.00
2017-12-26T23:46:35.297Z,51.30
2017-12-26T23:49:08.620Z,51.50
2017-12-26T23:51:41.896Z,51.50
2017-12-26T23:54:15.101Z,51.50
2017-12-26T23:56:48.468Z,51.50
2017-12-26T23:59:21.604Z,51.60
